Cobalt, Connecticut
Current Conditions -  °F | °C
As of 3:15 PM on Sunday 21 Dec 2014 (Local Time) from KSNC Reporting Station
Light Snow Light Snow  
Wind Chill: 29°   Ceiling: 300
Heat Index: 34°   Visibility: 2mi
Dew Point: 32°   Wind: 6mph
Humidity: 93%   Direction: 10°N
Pressure: 30.26"   Gusts: NA
Location:  41.56°N, 72.56°W
Report Text: KSNC 212015Z AUTO 01005KT 2SM -SN OVC003 01/00 A3026 RMK AO2 P0001
Loading
Personal Weather Stations






























Interactive Weather Map New forecast layout! Learn more

10-Day Weather Forecast

Advertisements
Track Severe Weather on mobile